sensor_id;sensor_type;location;lat;lon;timestamp;pressure;altitude;pressure_sealevel;temperature;humidity
12897;BME280;6516;35.028;32.372;2023-04-06T00:01:58;100000.75;;;14.83;80.21
12897;BME280;6516;35.028;32.372;2023-04-06T00:04:27;99998.09;;;14.83;80.40
12897;BME280;6516;35.028;32.372;2023-04-06T00:06:56;100000.81;;;14.82;81.05
12897;BME280;6516;35.028;32.372;2023-04-06T00:09:25;99991.09;;;14.82;81.52
12897;BME280;6516;35.028;32.372;2023-04-06T00:11:55;99999.03;;;14.82;81.33
12897;BME280;6516;35.028;32.372;2023-04-06T00:14:23;99997.31;;;14.81;81.41
12897;BME280;6516;35.028;32.372;2023-04-06T00:16:51;99989.47;;;14.78;82.11
12897;BME280;6516;35.028;32.372;2023-04-06T00:19:19;99990.28;;;14.80;82.12
12897;BME280;6516;35.028;32.372;2023-04-06T00:21:47;99995.81;;;14.74;82.26
12897;BME280;6516;35.028;32.372;2023-04-06T00:24:14;100000.03;;;14.80;81.93
12897;BME280;6516;35.028;32.372;2023-04-06T00:26:42;99993.78;;;14.81;81.10
12897;BME280;6516;35.028;32.372;2023-04-06T00:29:11;99991.38;;;14.75;80.86
12897;BME280;6516;35.028;32.372;2023-04-06T00:31:41;99985.94;;;14.78;81.53
12897;BME280;6516;35.028;32.372;2023-04-06T00:34:09;99988.44;;;14.82;81.70
12897;BME280;6516;35.028;32.372;2023-04-06T00:36:37;99989.41;;;14.80;81.33
12897;BME280;6516;35.028;32.372;2023-04-06T00:39:06;99980.72;;;14.76;81.49
12897;BME280;6516;35.028;32.372;2023-04-06T00:41:34;99978.81;;;14.80;81.44
12897;BME280;6516;35.028;32.372;2023-04-06T00:44:06;99974.66;;;14.73;82.10
12897;BME280;6516;35.028;32.372;2023-04-06T00:46:35;99986.81;;;14.78;82.25
12897;BME280;6516;35.028;32.372;2023-04-06T00:49:03;99984.13;;;14.80;82.53
12897;BME280;6516;35.028;32.372;2023-04-06T00:51:31;99980.78;;;14.75;82.92
12897;BME280;6516;35.028;32.372;2023-04-06T00:53:59;99983.47;;;14.73;82.89
12897;BME280;6516;35.028;32.372;2023-04-06T00:56:27;99982.50;;;14.76;83.43
12897;BME280;6516;35.028;32.372;2023-04-06T00:58:55;99984.34;;;14.74;82.54
12897;BME280;6516;35.028;32.372;2023-04-06T01:01:23;99986.91;;;14.75;81.74
12897;BME280;6516;35.028;32.372;2023-04-06T01:03:53;99986.03;;;14.76;82.01
12897;BME280;6516;35.028;32.372;2023-04-06T01:06:21;99973.81;;;14.72;81.19
12897;BME280;6516;35.028;32.372;2023-04-06T01:08:48;99980.97;;;14.69;81.42
12897;BME280;6516;35.028;32.372;2023-04-06T01:11:17;99979.41;;;14.65;82.13
12897;BME280;6516;35.028;32.372;2023-04-06T01:13:45;99979.25;;;14.68;81.84
12897;BME280;6516;35.028;32.372;2023-04-06T01:16:14;99969.50;;;14.70;81.65
12897;BME280;6516;35.028;32.372;2023-04-06T01:18:42;99979.25;;;14.68;81.79
12897;BME280;6516;35.028;32.372;2023-04-06T01:21:11;99979.25;;;14.68;82.29
12897;BME280;6516;35.028;32.372;2023-04-06T01:23:44;99972.13;;;14.70;82.48
12897;BME280;6516;35.028;32.372;2023-04-06T01:26:12;99972.28;;;14.65;83.33
12897;BME280;6516;35.028;32.372;2023-04-06T01:28:40;99976.66;;;14.66;83.63
12897;BME280;6516;35.028;32.372;2023-04-06T01:31:10;99973.22;;;14.64;84.03
12897;BME280;6516;35.028;32.372;2023-04-06T01:33:38;99963.66;;;14.60;84.96
12897;BME280;6516;35.028;32.372;2023-04-06T01:36:06;99968.91;;;14.62;85.16
12897;BME280;6516;35.028;32.372;2023-04-06T01:38:34;99960.91;;;14.63;85.12
12897;BME280;6516;35.028;32.372;2023-04-06T01:41:04;99959.00;;;14.67;84.82
12897;BME280;6516;35.028;32.372;2023-04-06T01:43:32;99954.63;;;14.66;85.13
12897;BME280;6516;35.028;32.372;2023-04-06T01:45:59;99961.88;;;14.61;85.62
12897;BME280;6516;35.028;32.372;2023-04-06T01:48:27;99958.41;;;14.59;85.65
12897;BME280;6516;35.028;32.372;2023-04-06T01:50:55;99966.59;;;14.53;85.97
12897;BME280;6516;35.028;32.372;2023-04-06T01:53:23;99961.34;;;14.51;85.50
12897;BME280;6516;35.028;32.372;2023-04-06T01:55:51;99965.59;;;14.55;85.08
12897;BME280;6516;35.028;32.372;2023-04-06T01:58:20;99964.88;;;14.52;85.02
12897;BME280;6516;35.028;32.372;2023-04-06T02:00:48;99963.94;;;14.53;84.63
12897;BME280;6516;35.028;32.372;2023-04-06T02:03:16;99964.72;;;14.55;84.34
12897;BME280;6516;35.028;32.372;2023-04-06T02:05:44;99978.91;;;14.54;83.92
12897;BME280;6516;35.028;32.372;2023-04-06T02:08:11;99970.22;;;14.50;84.44
12897;BME280;6516;35.028;32.372;2023-04-06T02:10:39;99971.09;;;14.51;84.22
12897;BME280;6516;35.028;32.372;2023-04-06T02:13:07;99981.78;;;14.48;84.61
12897;BME280;6516;35.028;32.372;2023-04-06T02:15:36;99980.75;;;14.52;84.67
12897;BME280;6516;35.028;32.372;2023-04-06T02:18:04;99978.91;;;14.54;84.46
12897;BME280;6516;35.028;32.372;2023-04-06T02:20:32;99982.38;;;14.56;83.63
12897;BME280;6516;35.028;32.372;2023-04-06T02:23:00;99987.69;;;14.56;83.56
12897;BME280;6516;35.028;32.372;2023-04-06T02:25:28;99987.72;;;14.54;83.12
12897;BME280;6516;35.028;32.372;2023-04-06T02:27:56;99994.00;;;14.52;83.13
12897;BME280;6516;35.028;32.372;2023-04-06T02:30:24;99987.19;;;14.45;82.82
12897;BME280;6516;35.028;32.372;2023-04-06T02:32:53;99994.16;;;14.47;82.63
12897;BME280;6516;35.028;32.372;2023-04-06T02:35:21;99983.75;;;14.43;82.99
12897;BME280;6516;35.028;32.372;2023-04-06T02:37:49;99980.31;;;14.39;83.39
12897;BME280;6516;35.028;32.372;2023-04-06T02:40:16;99978.66;;;14.37;83.53
12897;BME280;6516;35.028;32.372;2023-04-06T02:42:44;99979.69;;;14.33;84.21
12897;BME280;6516;35.028;32.372;2023-04-06T02:45:12;99977.16;;;14.30;84.28
12897;BME280;6516;35.028;32.372;2023-04-06T02:47:41;99971.09;;;14.26;84.19
12897;BME280;6516;35.028;32.372;2023-04-06T02:50:11;99972.88;;;14.26;84.05
12897;BME280;6516;35.028;32.372;2023-04-06T02:52:39;99972.78;;;14.29;84.07
12897;BME280;6516;35.028;32.372;2023-04-06T02:55:07;99975.44;;;14.29;84.02
12897;BME280;6516;35.028;32.372;2023-04-06T02:57:35;99970.13;;;14.29;83.87
12897;BME280;6516;35.028;32.372;2023-04-06T03:00:03;99974.56;;;14.28;84.07
12897;BME280;6516;35.028;32.372;2023-04-06T03:02:32;99973.56;;;14.31;84.18
12897;BME280;6516;35.028;32.372;2023-04-06T03:05:00;99980.59;;;14.32;83.55
12897;BME280;6516;35.028;32.372;2023-04-06T03:07:30;99971.53;;;14.39;83.31
12897;BME280;6516;35.028;32.372;2023-04-06T03:09:58;99971.75;;;14.33;83.33
12897;BME280;6516;35.028;32.372;2023-04-06T03:12:26;99972.88;;;14.26;83.10
12897;BME280;6516;35.028;32.372;2023-04-06T03:14:54;99977.28;;;14.25;82.45
12897;BME280;6516;35.028;32.372;2023-04-06T03:17:22;99972.94;;;14.24;82.04
12897;BME280;6516;35.028;32.372;2023-04-06T03:19:50;99985.19;;;14.27;82.44
12897;BME280;6516;35.028;32.372;2023-04-06T03:22:17;99982.44;;;14.30;82.65
12897;BME280;6516;35.028;32.372;2023-04-06T03:24:47;99990.22;;;14.34;81.80
12897;BME280;6516;35.028;32.372;2023-04-06T03:27:15;99979.56;;;14.36;81.14
12897;BME280;6516;35.028;32.372;2023-04-06T03:29:43;99982.34;;;14.33;80.86
12897;BME280;6516;35.028;32.372;2023-04-06T03:32:11;99978.97;;;14.28;81.24
12897;BME280;6516;35.028;32.372;2023-04-06T03:34:39;99978.28;;;14.23;81.35
12897;BME280;6516;35.028;32.372;2023-04-06T03:37:07;99977.38;;;14.24;82.11
12897;BME280;6516;35.028;32.372;2023-04-06T03:39:35;99981.75;;;14.25;82.23
12897;BME280;6516;35.028;32.372;2023-04-06T03:42:04;99980.88;;;14.24;82.05
12897;BME280;6516;35.028;32.372;2023-04-06T03:44:32;99972.88;;;14.26;81.98
12897;BME280;6516;35.028;32.372;2023-04-06T03:47:00;99980.91;;;14.23;81.86
12897;BME280;6516;35.028;32.372;2023-04-06T03:49:28;99980.03;;;14.24;81.12
12897;BME280;6516;35.028;32.372;2023-04-06T03:51:56;99983.47;;;14.26;80.82
12897;BME280;6516;35.028;32.372;2023-04-06T03:54:23;99987.00;;;14.26;80.42
12897;BME280;6516;35.028;32.372;2023-04-06T03:56:51;99993.00;;;14.31;81.13
12897;BME280;6516;35.028;32.372;2023-04-06T03:59:20;99995.41;;;14.37;81.62
12897;BME280;6516;35.028;32.372;2023-04-06T04:01:48;100006.66;;;14.44;82.05
12897;BME280;6516;35.028;32.372;2023-04-06T04:04:16;99999.34;;;14.50;81.66
12897;BME280;6516;35.028;32.372;2023-04-06T04:06:44;99998.16;;;14.59;81.14
12897;BME280;6516;35.028;32.372;2023-04-06T04:09:12;99991.81;;;14.63;80.48
12897;BME280;6516;35.028;32.372;2023-04-06T04:11:40;99995.09;;;14.69;80.42
12897;BME280;6516;35.028;32.372;2023-04-06T04:14:07;99996.63;;;14.76;80.59
12897;BME280;6516;35.028;32.372;2023-04-06T04:16:37;100001.44;;;14.88;80.17
12897;BME280;6516;35.028;32.372;2023-04-06T04:19:05;99998.66;;;14.93;79.39
12897;BME280;6516;35.028;32.372;2023-04-06T04:21:32;99999.81;;;15.07;78.15
12897;BME280;6516;35.028;32.372;2023-04-06T04:24:00;99993.44;;;15.13;78.08
12897;BME280;6516;35.028;32.372;2023-04-06T04:26:28;99997.53;;;15.21;77.57
12897;BME280;6516;35.028;32.372;2023-04-06T04:28:56;100003.28;;;15.32;77.26
12897;BME280;6516;35.028;32.372;2023-04-06T04:31:24;100004.91;;;15.36;77.12
12897;BME280;6516;35.028;32.372;2023-04-06T04:33:53;100006.47;;;15.42;76.56
12897;BME280;6516;35.028;32.372;2023-04-06T04:36:21;99997.22;;;15.52;76.27
12897;BME280;6516;35.028;32.372;2023-04-06T04:38:50;100007.31;;;15.64;75.87
12897;BME280;6516;35.028;32.372;2023-04-06T04:41:17;100008.69;;;15.74;75.32
12897;BME280;6516;35.028;32.372;2023-04-06T04:43:45;100013.06;;;15.75;75.07
12897;BME280;6516;35.028;32.372;2023-04-06T04:46:13;100016.00;;;15.89;74.00
12897;BME280;6516;35.028;32.372;2023-04-06T04:48:41;100016.41;;;16.00;74.55
12897;BME280;6516;35.028;32.372;2023-04-06T04:51:10;100013.31;;;16.10;73.68
12897;BME280;6516;35.028;32.372;2023-04-06T04:53:38;100016.84;;;16.11;73.20
12897;BME280;6516;35.028;32.372;2023-04-06T04:56:06;100006.00;;;16.15;73.45
12897;BME280;6516;35.028;32.372;2023-04-06T04:58:34;100026.41;;;16.15;73.49
12897;BME280;6516;35.028;32.372;2023-04-06T05:01:02;100022.94;;;16.13;72.85
12897;BME280;6516;35.028;32.372;2023-04-06T05:03:29;100022.16;;;16.11;73.47
12897;BME280;6516;35.028;32.372;2023-04-06T05:05:57;100018.44;;;16.35;73.33
12897;BME280;6516;35.028;32.372;2023-04-06T05:08:27;100017.50;;;16.57;72.77
12897;BME280;6516;35.028;32.372;2023-04-06T05:10:54;100002.16;;;16.82;72.24
12897;BME280;6516;35.028;32.372;2023-04-06T05:13:22;99999.78;;;16.95;71.21
12897;BME280;6516;35.028;32.372;2023-04-06T05:15:50;100006.56;;;17.02;71.15
12897;BME280;6516;35.028;32.372;2023-04-06T05:18:18;100004.56;;;17.07;71.52
12897;BME280;6516;35.028;32.372;2023-04-06T05:20:46;100012.34;;;17.11;71.55
12897;BME280;6516;35.028;32.372;2023-04-06T05:23:15;100020.63;;;17.24;71.38
12897;BME280;6516;35.028;32.372;2023-04-06T05:25:44;100016.56;;;17.34;71.08
12897;BME280;6516;35.028;32.372;2023-04-06T05:28:12;100021.69;;;17.57;70.60
12897;BME280;6516;35.028;32.372;2023-04-06T05:30:42;100021.38;;;17.81;69.63
12897;BME280;6516;35.028;32.372;2023-04-06T05:33:10;100033.16;;;17.94;69.00
12897;BME280;6516;35.028;32.372;2023-04-06T05:35:38;100034.34;;;18.06;68.88
12897;BME280;6516;35.028;32.372;2023-04-06T05:38:07;100039.50;;;18.26;67.22
12897;BME280;6516;35.028;32.372;2023-04-06T05:40:36;100043.09;;;18.43;67.31
12897;BME280;6516;35.028;32.372;2023-04-06T05:43:05;100035.66;;;18.50;66.34
12897;BME280;6516;35.028;32.372;2023-04-06T05:45:33;100047.72;;;18.57;65.85
12897;BME280;6516;35.028;32.372;2023-04-06T05:48:01;100043.84;;;18.79;65.94
12897;BME280;6516;35.028;32.372;2023-04-06T05:50:29;100045.38;;;18.68;65.82
12897;BME280;6516;35.028;32.372;2023-04-06T05:52:57;100038.94;;;18.87;65.06
12897;BME280;6516;35.028;32.372;2023-04-06T05:55:24;100044.13;;;18.90;64.24
12897;BME280;6516;35.028;32.372;2023-04-06T05:57:53;100043.19;;;18.91;63.56
12897;BME280;6516;35.028;32.372;2023-04-06T06:00:23;100043.66;;;18.99;63.34
12897;BME280;6516;35.028;32.372;2023-04-06T06:02:52;100039.97;;;18.85;63.43
12897;BME280;6516;35.028;32.372;2023-04-06T06:05:20;100057.59;;;19.04;62.99
12897;BME280;6516;35.028;32.372;2023-04-06T06:07:47;100053.13;;;19.05;63.14
12897;BME280;6516;35.028;32.372;2023-04-06T06:10:15;100049.75;;;19.01;61.10
12897;BME280;6516;35.028;32.372;2023-04-06T06:12:43;100061.56;;;19.13;60.46
12897;BME280;6516;35.028;32.372;2023-04-06T06:15:11;100059.34;;;19.21;60.67
12897;BME280;6516;35.028;32.372;2023-04-06T06:17:41;100064.56;;;19.24;61.83
12897;BME280;6516;35.028;32.372;2023-04-06T06:20:09;100060.44;;;19.34;61.64
12897;BME280;6516;35.028;32.372;2023-04-06T06:22:38;100064.59;;;19.39;61.10
12897;BME280;6516;35.028;32.372;2023-04-06T06:25:06;100065.97;;;19.62;59.85
12897;BME280;6516;35.028;32.372;2023-04-06T06:27:34;100066.31;;;19.40;61.14
12897;BME280;6516;35.028;32.372;2023-04-06T06:30:02;100065.19;;;19.29;60.45
12897;BME280;6516;35.028;32.372;2023-04-06T06:32:32;100066.41;;;19.39;61.70
12897;BME280;6516;35.028;32.372;2023-04-06T06:35:02;100058.56;;;19.36;61.39
12897;BME280;6516;35.028;32.372;2023-04-06T06:37:30;100069.34;;;19.50;60.01
12897;BME280;6516;35.028;32.372;2023-04-06T06:39:57;100068.63;;;19.46;60.06
12897;BME280;6516;35.028;32.372;2023-04-06T06:42:25;100075.56;;;19.82;60.21
12897;BME280;6516;35.028;32.372;2023-04-06T06:44:54;100074.16;;;19.90;59.28
12897;BME280;6516;35.028;32.372;2023-04-06T06:47:22;100072.63;;;20.02;59.79
12897;BME280;6516;35.028;32.372;2023-04-06T06:49:49;100060.53;;;20.26;59.40
12897;BME280;6516;35.028;32.372;2023-04-06T06:52:19;100059.97;;;20.21;59.37
12897;BME280;6516;35.028;32.372;2023-04-06T06:54:47;100058.84;;;19.78;58.38
12897;BME280;6516;35.028;32.372;2023-04-06T06:57:15;100065.47;;;20.02;58.36
12897;BME280;6516;35.028;32.372;2023-04-06T06:59:43;100066.50;;;20.00;57.18
12897;BME280;6516;35.028;32.372;2023-04-06T07:02:11;100075.63;;;20.27;57.70
12897;BME280;6516;35.028;32.372;2023-04-06T07:04:39;100091.59;;;20.28;57.26
12897;BME280;6516;35.028;32.372;2023-04-06T07:07:06;100078.81;;;20.33;57.57
12897;BME280;6516;35.028;32.372;2023-04-06T07:09:36;100077.31;;;20.43;57.90
12897;BME280;6516;35.028;32.372;2023-04-06T07:12:04;100081.81;;;20.43;57.30
12897;BME280;6516;35.028;32.372;2023-04-06T07:14:32;100085.09;;;20.48;57.71
12897;BME280;6516;35.028;32.372;2023-04-06T07:17:00;100094.22;;;20.73;57.40
12897;BME280;6516;35.028;32.372;2023-04-06T07:19:28;100078.75;;;20.78;56.62
12897;BME280;6516;35.028;32.372;2023-04-06T07:21:56;100093.16;;;20.62;56.98
12897;BME280;6516;35.028;32.372;2023-04-06T07:24:23;100101.25;;;20.60;56.67
12897;BME280;6516;35.028;32.372;2023-04-06T07:26:53;100094.78;;;20.64;57.02
12897;BME280;6516;35.028;32.372;2023-04-06T07:29:22;100091.13;;;20.95;57.17
12897;BME280;6516;35.028;32.372;2023-04-06T07:31:49;100103.22;;;21.02;56.65
12897;BME280;6516;35.028;32.372;2023-04-06T07:34:17;100103.25;;;20.86;56.25
12897;BME280;6516;35.028;32.372;2023-04-06T07:36:45;100096.78;;;20.90;55.89
12897;BME280;6516;35.028;32.372;2023-04-06T07:39:13;100096.31;;;20.98;57.05
12897;BME280;6516;35.028;32.372;2023-04-06T07:41:41;100093.16;;;21.05;56.76
12897;BME280;6516;35.028;32.372;2023-04-06T07:44:10;100087.81;;;21.19;53.56
12897;BME280;6516;35.028;32.372;2023-04-06T07:46:38;100077.50;;;21.27;53.97
12897;BME280;6516;35.028;32.372;2023-04-06T07:49:06;100093.56;;;20.99;56.27
12897;BME280;6516;35.028;32.372;2023-04-06T07:51:36;100087.75;;;20.77;57.03
12897;BME280;6516;35.028;32.372;2023-04-06T07:54:05;100082.97;;;20.82;57.03
12897;BME280;6516;35.028;32.372;2023-04-06T07:56:33;100084.66;;;20.99;56.18
12897;BME280;6516;35.028;32.372;2023-04-06T07:59:01;100087.81;;;21.05;55.24
12897;BME280;6516;35.028;32.372;2023-04-06T08:01:30;100092.34;;;20.60;53.53
12897;BME280;6516;35.028;32.372;2023-04-06T08:03:58;100088.06;;;20.57;57.45
12897;BME280;6516;35.028;32.372;2023-04-06T08:06:28;100088.28;;;20.68;56.51
12897;BME280;6516;35.028;32.372;2023-04-06T08:08:56;100081.97;;;20.99;55.81
12897;BME280;6516;35.028;32.372;2023-04-06T08:11:23;100079.56;;;20.65;56.56
12897;BME280;6516;35.028;32.372;2023-04-06T08:13:52;100082.16;;;20.66;55.18
12897;BME280;6516;35.028;32.372;2023-04-06T08:16:23;100087.38;;;20.83;54.28
12897;BME280;6516;35.028;32.372;2023-04-06T08:18:53;100090.28;;;20.94;55.55
12897;BME280;6516;35.028;32.372;2023-04-06T08:21:22;100097.91;;;20.86;55.47
12897;BME280;6516;35.028;32.372;2023-04-06T08:23:50;100102.34;;;21.29;54.92
12897;BME280;6516;35.028;32.372;2023-04-06T08:26:17;100106.56;;;21.47;54.44
12897;BME280;6516;35.028;32.372;2023-04-06T08:28:45;100094.31;;;21.71;51.10
12897;BME280;6516;35.028;32.372;2023-04-06T08:31:13;100080.16;;;21.69;52.43
12897;BME280;6516;35.028;32.372;2023-04-06T08:33:41;100088.38;;;21.52;53.69
12897;BME280;6516;35.028;32.372;2023-04-06T08:36:12;100092.00;;;21.79;53.37
12897;BME280;6516;35.028;32.372;2023-04-06T08:38:42;100088.56;;;22.18;51.78
12897;BME280;6516;35.028;32.372;2023-04-06T08:41:11;100081.47;;;22.70;50.97
12897;BME280;6516;35.028;32.372;2023-04-06T08:43:44;100088.53;;;22.58;51.57
12897;BME280;6516;35.028;32.372;2023-04-06T08:46:14;100086.78;;;22.04;52.29
12897;BME280;6516;35.028;32.372;2023-04-06T08:48:43;100093.63;;;21.68;51.31
12897;BME280;6516;35.028;32.372;2023-04-06T08:51:12;100061.50;;;22.08;49.93
12897;BME280;6516;35.028;32.372;2023-04-06T08:53:41;100094.06;;;21.34;51.50
12897;BME280;6516;35.028;32.372;2023-04-06T08:56:09;100085.53;;;21.41;52.85
12897;BME280;6516;35.028;32.372;2023-04-06T08:58:39;100089.06;;;22.10;50.50
12897;BME280;6516;35.028;32.372;2023-04-06T09:01:11;100090.34;;;22.31;49.25
12897;BME280;6516;35.028;32.372;2023-04-06T09:03:40;100095.84;;;21.47;54.26
12897;BME280;6516;35.028;32.372;2023-04-06T09:06:08;100096.22;;;21.83;55.00
12897;BME280;6516;35.028;32.372;2023-04-06T09:08:39;100094.03;;;21.76;53.79
12897;BME280;6516;35.028;32.372;2023-04-06T09:11:08;100087.00;;;22.01;52.54
12897;BME280;6516;35.028;32.372;2023-04-06T09:13:47;100087.31;;;21.69;52.40
12897;BME280;6516;35.028;32.372;2023-04-06T09:16:17;100089.44;;;21.78;52.97
12897;BME280;6516;35.028;32.372;2023-04-06T09:18:45;100090.78;;;21.57;52.70
12897;BME280;6516;35.028;32.372;2023-04-06T09:21:16;100085.97;;;21.90;51.05
12897;BME280;6516;35.028;32.372;2023-04-06T09:23:47;100080.88;;;21.99;50.70
12897;BME280;6516;35.028;32.372;2023-04-06T09:26:16;100078.78;;;21.90;51.19
12897;BME280;6516;35.028;32.372;2023-04-06T09:28:46;100087.72;;;21.77;53.19
12897;BME280;6516;35.028;32.372;2023-04-06T09:31:16;100074.03;;;22.34;51.24
12897;BME280;6516;35.028;32.372;2023-04-06T09:33:48;100075.03;;;22.72;50.75
12897;BME280;6516;35.028;32.372;2023-04-06T09:36:16;100073.22;;;21.93;51.75
12897;BME280;6516;35.028;32.372;2023-04-06T09:38:55;100074.84;;;22.22;51.02
12897;BME280;6516;35.028;32.372;2023-04-06T09:41:24;100075.13;;;22.71;49.56
12897;BME280;6516;35.028;32.372;2023-04-06T09:44:02;100073.41;;;22.43;47.72
12897;BME280;6516;35.028;32.372;2023-04-06T09:46:32;100069.13;;;21.88;46.56
12897;BME280;6516;35.028;32.372;2023-04-06T09:49:02;100072.09;;;21.83;48.42
12897;BME280;6516;35.028;32.372;2023-04-06T09:51:31;100069.25;;;21.58;49.77
12897;BME280;6516;35.028;32.372;2023-04-06T09:54:06;100071.16;;;21.70;50.15
12897;BME280;6516;35.028;32.372;2023-04-06T09:56:39;100073.56;;;21.61;51.35
12897;BME280;6516;35.028;32.372;2023-04-06T09:59:14;100068.69;;;22.08;48.21
12897;BME280;6516;35.028;32.372;2023-04-06T10:01:51;100076.66;;;21.95;50.99
12897;BME280;6516;35.028;32.372;2023-04-06T10:04:29;100069.78;;;21.91;50.96
12897;BME280;6516;35.028;32.372;2023-04-06T10:07:02;100073.00;;;22.23;49.49
12897;BME280;6516;35.028;32.372;2023-04-06T10:09:32;100067.25;;;22.02;49.29
12897;BME280;6516;35.028;32.372;2023-04-06T10:12:03;100059.59;;;22.23;51.26
12897;BME280;6516;35.028;32.372;2023-04-06T10:14:33;100064.84;;;21.85;51.47
12897;BME280;6516;35.028;32.372;2023-04-06T10:17:03;100065.19;;;22.46;49.51
12897;BME280;6516;35.028;32.372;2023-04-06T10:19:42;100060.81;;;22.58;50.09
12897;BME280;6516;35.028;32.372;2023-04-06T10:22:21;100069.97;;;22.41;51.58
12897;BME280;6516;35.028;32.372;2023-04-06T10:24:53;100071.41;;;22.20;51.60
12897;BME280;6516;35.028;32.372;2023-04-06T10:27:27;100066.28;;;22.30;52.35
12897;BME280;6516;35.028;32.372;2023-04-06T10:30:01;100070.75;;;22.17;50.31
12897;BME280;6516;35.028;32.372;2023-04-06T10:32:34;100063.38;;;22.47;50.74
12897;BME280;6516;35.028;32.372;2023-04-06T10:35:10;100055.19;;;22.48;50.72
12897;BME280;6516;35.028;32.372;2023-04-06T10:37:50;100042.16;;;22.42;49.55
12897;BME280;6516;35.028;32.372;2023-04-06T10:40:22;100048.81;;;22.63;47.20
12897;BME280;6516;35.028;32.372;2023-04-06T10:42:52;100054.50;;;22.32;48.86
12897;BME280;6516;35.028;32.372;2023-04-06T10:45:22;100043.66;;;22.34;47.19
12897;BME280;6516;35.028;32.372;2023-04-06T10:47:52;100039.13;;;22.22;46.56
12897;BME280;6516;35.028;32.372;2023-04-06T10:50:21;100040.34;;;21.77;48.77
12897;BME280;6516;35.028;32.372;2023-04-06T10:52:59;100038.25;;;22.21;50.28
12897;BME280;6516;35.028;32.372;2023-04-06T10:55:29;100019.84;;;22.03;45.75
12897;BME280;6516;35.028;32.372;2023-04-06T10:57:58;100032.81;;;21.96;48.42
12897;BME280;6516;35.028;32.372;2023-04-06T11:00:26;100017.13;;;22.29;48.21
12897;BME280;6516;35.028;32.372;2023-04-06T11:02:59;100024.56;;;21.99;49.64
12897;BME280;6516;35.028;32.372;2023-04-06T11:05:27;100019.31;;;21.43;50.23
12897;BME280;6516;35.028;32.372;2023-04-06T11:07:56;100014.22;;;21.93;49.59
12897;BME280;6516;35.028;32.372;2023-04-06T11:10:24;100005.03;;;21.97;48.19
12897;BME280;6516;35.028;32.372;2023-04-06T11:12:54;100003.38;;;21.82;44.92
12897;BME280;6516;35.028;32.372;2023-04-06T11:15:22;99994.59;;;22.19;43.94
12897;BME280;6516;35.028;32.372;2023-04-06T11:17:50;99994.78;;;22.55;44.57
12897;BME280;6516;35.028;32.372;2023-04-06T11:20:18;99974.38;;;22.78;43.41
12897;BME280;6516;35.028;32.372;2023-04-06T11:22:52;99987.81;;;22.78;42.01
12897;BME280;6516;35.028;32.372;2023-04-06T11:25:20;99991.25;;;22.92;40.76
12897;BME280;6516;35.028;32.372;2023-04-06T11:27:48;99992.84;;;22.57;40.90
12897;BME280;6516;35.028;32.372;2023-04-06T11:30:18;99993.84;;;22.81;38.57
12897;BME280;6516;35.028;32.372;2023-04-06T11:32:46;100006.69;;;22.64;39.54
12897;BME280;6516;35.028;32.372;2023-04-06T11:35:19;100002.75;;;22.30;42.48
12897;BME280;6516;35.028;32.372;2023-04-06T11:37:48;100008.72;;;22.21;42.32
12897;BME280;6516;35.028;32.372;2023-04-06T11:40:21;100008.00;;;22.19;43.35
12897;BME280;6516;35.028;32.372;2023-04-06T11:42:54;100007.47;;;22.27;46.90
12897;BME280;6516;35.028;32.372;2023-04-06T11:45:24;99996.25;;;21.95;45.98
12897;BME280;6516;35.028;32.372;2023-04-06T11:47:56;99996.28;;;21.81;44.35
12897;BME280;6516;35.028;32.372;2023-04-06T11:50:25;99982.66;;;21.84;43.30
12897;BME280;6516;35.028;32.372;2023-04-06T11:52:59;99991.19;;;22.03;45.17
12897;BME280;6516;35.028;32.372;2023-04-06T11:55:28;99981.25;;;22.05;44.67
12897;BME280;6516;35.028;32.372;2023-04-06T11:57:56;99989.47;;;22.02;45.59
12897;BME280;6516;35.028;32.372;2023-04-06T12:00:26;99982.75;;;22.09;48.43
12897;BME280;6516;35.028;32.372;2023-04-06T12:03:00;99985.38;;;22.36;45.47
12897;BME280;6516;35.028;32.372;2023-04-06T12:05:28;99971.91;;;22.50;45.06
12897;BME280;6516;35.028;32.372;2023-04-06T12:07:56;99978.47;;;22.07;44.24
12897;BME280;6516;35.028;32.372;2023-04-06T12:10:23;99972.69;;;22.13;45.71
12897;BME280;6516;35.028;32.372;2023-04-06T12:12:51;99967.56;;;21.83;45.21
12897;BME280;6516;35.028;32.372;2023-04-06T12:15:19;99965.69;;;21.57;44.51
12897;BME280;6516;35.028;32.372;2023-04-06T12:17:48;99977.72;;;21.38;50.71
12897;BME280;6516;35.028;32.372;2023-04-06T12:20:16;99978.69;;;21.77;47.81
12897;BME280;6516;35.028;32.372;2023-04-06T12:22:44;99968.63;;;21.40;49.98
12897;BME280;6516;35.028;32.372;2023-04-06T12:25:12;99959.63;;;21.68;48.20
12897;BME280;6516;35.028;32.372;2023-04-06T12:27:40;99955.47;;;21.90;50.67
12897;BME280;6516;35.028;32.372;2023-04-06T12:30:08;99950.06;;;22.29;48.39
12897;BME280;6516;35.028;32.372;2023-04-06T12:32:37;99948.63;;;22.11;46.45
12897;BME280;6516;35.028;32.372;2023-04-06T12:35:07;99954.31;;;21.94;43.89
12897;BME280;6516;35.028;32.372;2023-04-06T12:37:37;99949.88;;;21.93;48.13
12897;BME280;6516;35.028;32.372;2023-04-06T12:40:06;99954.00;;;21.72;49.32
12897;BME280;6516;35.028;32.372;2023-04-06T12:42:36;99949.56;;;21.85;49.96
12897;BME280;6516;35.028;32.372;2023-04-06T12:45:04;99954.19;;;21.96;48.72
12897;BME280;6516;35.028;32.372;2023-04-06T12:47:33;99940.66;;;21.85;49.27
12897;BME280;6516;35.028;32.372;2023-04-06T12:50:01;99932.97;;;21.52;50.86
12897;BME280;6516;35.028;32.372;2023-04-06T12:52:31;99941.84;;;21.26;49.51
12897;BME280;6516;35.028;32.372;2023-04-06T12:55:01;99938.59;;;21.21;47.46
12897;BME280;6516;35.028;32.372;2023-04-06T12:57:30;99933.63;;;21.29;47.17
12897;BME280;6516;35.028;32.372;2023-04-06T12:59:58;99944.34;;;21.29;47.65
12897;BME280;6516;35.028;32.372;2023-04-06T13:02:26;99954.19;;;21.15;47.65
12897;BME280;6516;35.028;32.372;2023-04-06T13:04:54;99958.16;;;21.09;49.04